Time;durP1;ratioP1;P1;durP2;ratioP2;P2;SDS_P1;SDS_P2;PMS_P1;PMS_P2;Temp;Humidity;BMP_temperature;BMP_pressure;BME280_temperature;BME280_humidity;BME280_pressure;Samples;Min_cycle;Max_cycle;Signal;HPM_P1;HPM_P2
2021/09/15 00:00:11;;;;;;;;;6.00;6.00;;;;;21.60;71.35;100307.91;4958289;28;45606;-61
2021/09/15 00:02:36;;;;;;;;;6.00;5.00;;;;;21.60;71.01;100302.56;4958063;28;46550;-61
2021/09/15 00:05:03;;;;;;;;;5.00;5.00;;;;;21.60;71.02;100305.22;4957105;28;71129;-61
2021/09/15 00:07:28;;;;;;;;;5.25;5.00;;;;;21.60;71.04;100302.56;4958100;28;45243;-61
2021/09/15 00:09:53;;;;;;;;;5.00;5.00;;;;;21.58;71.22;100292.06;4957766;28;60399;-61
2021/09/15 00:12:19;;;;;;;;;5.00;5.00;;;;;21.58;70.75;100296.59;4957022;28;71085;-61
2021/09/15 00:14:44;;;;;;;;;4.00;4.00;;;;;21.56;70.51;100290.66;4956908;28;60834;-60
2021/09/15 00:17:09;;;;;;;;;6.25;4.50;;;;;21.54;70.73;100290.03;4957272;28;61315;-61
2021/09/15 00:19:35;;;;;;;;;7.00;5.00;;;;;21.53;71.03;100291.06;4957666;28;57018;-61
2021/09/15 00:22:00;;;;;;;;;7.00;5.25;;;;;21.49;71.18;100283.47;4956897;28;73469;-61
2021/09/15 00:24:25;;;;;;;;;5.00;5.00;;;;;21.48;71.43;100287.19;4955713;28;65080;-61
2021/09/15 00:26:51;;;;;;;;;6.00;6.00;;;;;21.46;71.50;100286.59;4957990;28;45249;-61
2021/09/15 00:29:16;;;;;;;;;7.25;5.50;;;;;21.46;71.14;100294.59;4957202;28;58691;-61
2021/09/15 00:31:42;;;;;;;;;8.00;6.00;;;;;21.45;71.25;100287.63;4956206;28;63584;-61
2021/09/15 00:34:07;;;;;;;;;9.00;7.25;;;;;21.46;71.72;100280.44;4956923;28;67614;-61
2021/09/15 00:36:32;;;;;;;;;7.25;7.00;;;;;21.45;71.88;100281.47;4957051;28;62134;-61
2021/09/15 00:38:58;;;;;;;;;8.00;6.75;;;;;21.45;71.88;100279.59;4956590;28;65238;-61
2021/09/15 00:41:23;;;;;;;;;6.25;6.25;;;;;21.46;71.92;100281.25;4956668;28;71611;-61
2021/09/15 00:43:57;;;;;;;;;6.75;6.00;;;;;21.44;71.84;100280.63;4955903;28;59027;-61
2021/09/15 00:46:22;;;;;;;;;6.75;6.25;;;;;21.44;71.42;100279.81;4957746;28;45389;-61
2021/09/15 00:48:48;;;;;;;;;9.00;7.00;;;;;21.44;71.35;100269.94;4957592;28;45354;-60
2021/09/15 00:51:14;;;;;;;;;7.75;7.75;;;;;21.45;71.13;100260.88;4956387;28;74168;-60
2021/09/15 00:53:39;;;;;;;;;9.00;6.25;;;;;21.45;71.22;100260.88;4956203;28;45449;-61
2021/09/15 00:56:04;;;;;;;;;7.75;7.25;;;;;21.46;71.48;100264.41;4955642;28;67572;-61
2021/09/15 00:58:30;;;;;;;;;9.25;7.75;;;;;21.43;72.00;100268.31;4939352;28;62749;-61
2021/09/15 01:00:55;;;;;;;;;8.00;7.25;;;;;21.42;71.80;100260.50;4956417;28;70163;-60
2021/09/15 01:03:20;;;;;;;;;9.75;8.00;;;;;21.40;71.44;100255.38;4957508;28;45341;-61
2021/09/15 01:05:46;;;;;;;;;7.25;7.25;;;;;21.37;72.02;100253.13;4955470;28;61840;-61
2021/09/15 01:08:12;;;;;;;;;7.00;7.00;;;;;21.36;71.79;100256.81;4955515;28;61049;-61
2021/09/15 01:10:37;;;;;;;;;8.75;7.25;;;;;21.34;71.78;100256.22;4956234;28;46593;-61
2021/09/15 01:13:03;;;;;;;;;8.75;6.75;;;;;21.34;71.61;100262.41;4939162;28;66836;-61
2021/09/15 01:15:28;;;;;;;;;9.00;8.25;;;;;21.33;71.87;100267.94;4956920;28;53033;-61
2021/09/15 01:17:53;;;;;;;;;7.25;7.00;;;;;21.34;72.14;100266.91;4957466;28;45596;-61
2021/09/15 01:20:19;;;;;;;;;8.50;7.25;;;;;21.32;71.64;100259.13;4956302;28;68801;-61
2021/09/15 01:22:45;;;;;;;;;7.00;7.00;;;;;21.34;72.25;100256.22;4956195;28;70375;-61
2021/09/15 01:25:11;;;;;;;;;6.50;6.50;;;;;21.33;72.17;100250.06;4956111;28;45232;-61
2021/09/15 01:27:36;;;;;;;;;6.75;6.00;;;;;21.34;71.74;100248.22;4956915;28;48159;-61
2021/09/15 01:30:02;;;;;;;;;6.25;5.25;;;;;21.34;71.45;100240.19;4956938;28;46433;-61
2021/09/15 01:32:27;;;;;;;;;5.75;5.75;;;;;21.34;71.43;100240.19;4955634;28;45858;-61
2021/09/15 01:34:53;;;;;;;;;6.00;6.00;;;;;21.33;71.80;100247.41;4956759;28;49587;-61
2021/09/15 01:37:19;;;;;;;;;6.50;6.50;;;;;21.33;72.05;100235.88;4956792;28;45310;-61
2021/09/15 01:39:44;;;;;;;;;7.50;5.00;;;;;21.33;72.10;100241.22;4954660;28;45479;-61
2021/09/15 01:42:09;;;;;;;;;5.25;5.25;;;;;21.33;71.76;100251.91;4956109;28;64578;-61
2021/09/15 01:44:43;;;;;;;;;6.25;6.00;;;;;21.32;71.43;100252.94;4958480;28;56668;-61
2021/09/15 01:47:09;;;;;;;;;6.50;6.00;;;;;21.32;71.98;100250.28;4960336;28;45285;-61
2021/09/15 01:49:35;;;;;;;;;6.25;5.25;;;;;21.32;71.86;100239.59;4959911;28;47462;-61
2021/09/15 01:52:01;;;;;;;;;5.75;5.00;;;;;21.31;71.45;100248.63;4960058;28;45365;-61
2021/09/15 01:54:27;;;;;;;;;7.00;5.25;;;;;21.31;71.90;100259.31;4960422;28;45333;-61
2021/09/15 01:56:52;;;;;;;;;5.50;5.00;;;;;21.31;71.45;100252.13;4960153;28;45215;-61
2021/09/15 01:59:17;;;;;;;;;6.00;4.00;;;;;21.32;71.30;100248.44;4959123;28;73791;-61
2021/09/15 02:01:43;;;;;;;;;5.50;5.00;;;;;21.32;71.39;100252.94;4959928;28;45242;-61
2021/09/15 02:04:08;;;;;;;;;7.25;5.25;;;;;21.32;71.52;100247.59;4959278;28;60867;-61
2021/09/15 02:06:34;;;;;;;;;6.00;5.75;;;;;21.31;71.44;100249.47;4959146;28;45560;-61
2021/09/15 02:08:59;;;;;;;;;9.00;7.00;;;;;21.31;71.46;100249.47;4959836;28;46552;-61
2021/09/15 02:11:25;;;;;;;;;8.25;5.75;;;;;21.29;71.51;100251.53;4958855;28;70998;-60
2021/09/15 02:13:50;;;;;;;;;9.25;5.00;;;;;21.29;71.49;100256.03;4959933;28;45282;-61
2021/09/15 02:16:16;;;;;;;;;6.50;6.00;;;;;21.27;71.83;100256.28;4959582;28;56631;-61
2021/09/15 02:18:41;;;;;;;;;8.25;6.25;;;;;21.26;71.55;100262.66;4959535;28;46390;-61
2021/09/15 02:21:07;;;;;;;;;8.00;7.25;;;;;21.27;71.86;100252.75;4959220;28;65500;-62
2021/09/15 02:23:32;;;;;;;;;6.00;6.00;;;;;21.27;71.65;100263.44;4958965;28;49541;-61
2021/09/15 02:25:58;;;;;;;;;6.00;5.50;;;;;21.25;71.97;100262.84;4959084;28;45545;-61
2021/09/15 02:28:23;;;;;;;;;8.00;7.50;;;;;21.24;71.97;100258.53;4958796;28;66581;-61
2021/09/15 02:30:48;;;;;;;;;6.75;6.75;;;;;21.24;71.96;100250.50;4958751;28;65211;-61
2021/09/15 02:33:14;;;;;;;;;7.50;6.00;;;;;21.25;71.80;100252.16;4957895;28;45322;-61
2021/09/15 02:35:39;;;;;;;;;7.25;7.00;;;;;21.24;71.63;100259.38;4958775;28;60010;-61
2021/09/15 02:38:04;;;;;;;;;5.50;5.50;;;;;21.22;71.92;100265.94;4957252;28;61159;-61
2021/09/15 02:40:30;;;;;;;;;7.50;6.00;;;;;21.22;72.25;100263.28;4958085;28;66121;-61
2021/09/15 02:42:55;;;;;;;;;8.00;5.50;;;;;21.18;72.38;100266.41;4958705;28;60041;-61
2021/09/15 02:45:21;;;;;;;;;6.00;6.00;;;;;21.15;73.07;100266.81;4959168;28;45318;-62
2021/09/15 02:47:46;;;;;;;;;8.50;6.00;;;;;21.13;72.79;100271.56;4959297;28;45369;-61
2021/09/15 02:50:11;;;;;;;;;5.75;5.00;;;;;21.13;72.71;100266.22;4959064;28;45271;-61
2021/09/15 02:52:37;;;;;;;;;6.00;6.00;;;;;21.14;73.41;100281.22;4958545;28;59322;-61
2021/09/15 02:55:02;;;;;;;;;7.50;6.00;;;;;21.14;73.67;100281.22;4958428;28;45578;-61
2021/09/15 02:57:28;;;;;;;;;5.25;4.75;;;;;21.13;73.44;100279.56;4958387;28;45302;-61
2021/09/15 02:59:53;;;;;;;;;6.00;5.00;;;;;21.14;73.34;100275.03;4958402;28;68206;-60
2021/09/15 03:02:19;;;;;;;;;8.00;6.00;;;;;21.13;72.98;100276.91;4958388;28;65951;-60
2021/09/15 03:04:44;;;;;;;;;8.50;6.75;;;;;21.12;72.91;100272.59;4957620;28;53440;-61
2021/09/15 03:07:09;;;;;;;;;6.00;6.00;;;;;21.10;73.34;100271.97;4957759;28;75271;-61
2021/09/15 03:09:35;;;;;;;;;7.00;5.00;;;;;21.08;73.61;100268.69;4957955;28;67800;-61
2021/09/15 03:12:00;;;;;;;;;7.00;5.75;;;;;21.09;73.67;100261.50;4957438;28;51154;-61
2021/09/15 03:14:25;;;;;;;;;8.75;6.00;;;;;21.09;73.88;100262.31;4958322;28;62942;-61
2021/09/15 03:16:54;;;;;;;;;7.50;6.50;;;;;21.09;73.65;100267.66;4957878;28;69091;-61
2021/09/15 03:19:19;;;;;;;;;6.00;6.00;;;;;21.07;73.25;100259.03;4958743;28;45325;-61
2021/09/15 03:21:45;;;;;;;;;5.00;4.25;;;;;21.09;73.22;100256.16;4958871;28;45460;-61
2021/09/15 03:24:10;;;;;;;;;8.00;6.25;;;;;21.08;73.73;100258.00;4958207;28;64808;-62
2021/09/15 03:26:35;;;;;;;;;5.00;5.00;;;;;21.08;73.35;100258.00;4957720;28;66790;-61
2021/09/15 03:29:01;;;;;;;;;6.75;6.25;;;;;21.08;73.85;100260.69;4958448;28;45361;-61
2021/09/15 03:31:26;;;;;;;;;7.00;6.00;;;;;21.09;73.93;100264.16;4957224;28;45282;-60
2021/09/15 03:33:52;;;;;;;;;4.75;4.75;;;;;21.11;73.21;100264.78;4957607;28;68148;-61
2021/09/15 03:36:17;;;;;;;;;5.75;5.75;;;;;21.10;73.77;100258.63;4958029;28;58824;-61
2021/09/15 03:38:42;;;;;;;;;6.25;6.00;;;;;21.10;73.52;100258.63;4957724;28;45476;-61
2021/09/15 03:41:08;;;;;;;;;7.00;6.00;;;;;21.09;73.58;100256.97;4956339;28;67348;-61
2021/09/15 03:43:33;;;;;;;;;7.25;5.00;;;;;21.08;73.06;100263.34;4958466;28;45246;-60
2021/09/15 03:45:58;;;;;;;;;7.00;5.75;;;;;21.07;73.15;100266.22;4957503;28;70792;-61
2021/09/15 03:48:24;;;;;;;;;7.25;5.50;;;;;21.05;73.28;100263.78;4957292;28;71167;-61
2021/09/15 03:50:49;;;;;;;;;6.00;6.00;;;;;21.04;73.89;100264.81;4957808;28;67251;-61
2021/09/15 03:53:15;;;;;;;;;6.00;6.00;;;;;21.04;74.04;100259.47;4957567;28;62358;-61
2021/09/15 03:55:40;;;;;;;;;8.50;6.25;;;;;21.04;73.33;100268.28;4957667;28;46015;-61
2021/09/15 03:58:05;;;;;;;;;6.75;6.75;;;;;21.04;73.25;100259.47;4957863;28;49186;-60
2021/09/15 04:00:31;;;;;;;;;8.75;6.50;;;;;21.04;73.48;100264.81;4957684;28;55064;-61
2021/09/15 04:02:56;;;;;;;;;8.25;4.00;;;;;21.04;73.61;100267.47;4958077;28;45579;-61
2021/09/15 04:05:21;;;;;;;;;6.00;6.00;;;;;21.04;73.67;100272.81;4957039;28;67305;-61
2021/09/15 04:07:47;;;;;;;;;5.75;5.75;;;;;21.04;74.01;100270.16;4957054;28;45450;-61
2021/09/15 04:10:12;;;;;;;;;6.00;5.75;;;;;21.04;74.00;100268.28;4958179;28;45381;-61
2021/09/15 04:12:39;;;;;;;;;7.00;6.00;;;;;21.03;73.82;100268.50;4956066;28;63927;-61
2021/09/15 04:15:05;;;;;;;;;7.25;5.00;;;;;21.00;73.61;100271.59;4956596;28;46440;-61
2021/09/15 04:17:30;;;;;;;;;6.00;4.75;;;;;20.99;73.59;100270.78;4957590;28;45357;-61
2021/09/15 04:19:55;;;;;;;;;8.50;6.75;;;;;20.98;73.60;100269.13;4957588;28;50456;-61
2021/09/15 04:22:21;;;;;;;;;7.25;7.25;;;;;20.98;73.55;100274.47;4958084;28;45596;-61
2021/09/15 04:32:59;;;;;;;;;8.75;8.00;;;;;20.99;73.62;100289.47;4957859;28;45246;-61
2021/09/15 04:35:25;;;;;;;;;9.50;7.25;;;;;21.00;74.12;100287.63;4957536;28;46236;-61
2021/09/15 04:37:50;;;;;;;;;7.25;7.25;;;;;21.00;73.57;100284.97;4957280;28;45788;-61
2021/09/15 04:40:16;;;;;;;;;8.25;6.00;;;;;20.98;73.35;100281.69;4956803;28;58906;-61
2021/09/15 04:42:41;;;;;;;;;6.75;6.75;;;;;20.96;73.46;100273.88;4956738;28;65527;-61
2021/09/15 04:45:07;;;;;;;;;7.75;7.00;;;;;20.95;73.73;100266.88;4956968;28;59238;-61
2021/09/15 04:47:32;;;;;;;;;8.25;6.00;;;;;20.95;73.31;100276.75;4956236;28;45278;-61
2021/09/15 04:49:59;;;;;;;;;5.25;5.25;;;;;20.94;73.56;100272.44;4956516;28;69357;-61
2021/09/15 04:52:24;;;;;;;;;8.50;5.00;;;;;20.96;73.56;100278.41;4957445;28;45250;-61
2021/09/15 04:54:49;;;;;;;;;8.00;6.00;;;;;20.94;74.13;100275.91;4957280;28;46586;-61
2021/09/15 04:57:15;;;;;;;;;8.25;6.00;;;;;20.94;73.93;100283.13;4956427;28;66033;-61
2021/09/15 04:59:40;;;;;;;;;7.25;6.00;;;;;20.93;73.48;100279.63;4955371;28;65183;-61
2021/09/15 05:02:06;;;;;;;;;7.25;6.00;;;;;20.94;73.50;100281.25;4956661;28;63751;-61
2021/09/15 05:04:31;;;;;;;;;9.00;8.00;;;;;20.93;74.04;100279.63;4956343;28;69505;-61
2021/09/15 05:06:56;;;;;;;;;5.75;5.00;;;;;20.94;73.95;100281.25;4956971;28;59958;-60
2021/09/15 05:09:22;;;;;;;;;6.00;5.50;;;;;20.94;73.93;100275.91;4957357;28;45346;-61
2021/09/15 05:11:47;;;;;;;;;6.75;6.75;;;;;20.94;73.44;100280.47;4956234;28;69249;-61
2021/09/15 05:14:12;;;;;;;;;10.00;8.00;;;;;20.93;73.21;100284.97;4955837;28;73729;-61
2021/09/15 05:16:38;;;;;;;;;8.00;7.00;;;;;20.92;73.32;100278.00;4957046;28;45474;-61
2021/09/15 05:19:03;;;;;;;;;11.00;10.00;;;;;20.93;73.62;100278.81;4958700;28;68895;-61
2021/09/15 05:21:28;;;;;;;;;9.00;9.00;;;;;20.93;73.78;100276.94;4959504;28;69678;-61
2021/09/15 05:23:54;;;;;;;;;9.00;9.00;;;;;20.94;73.43;100277.78;4959649;28;66808;-61
2021/09/15 05:26:19;;;;;;;;;11.50;8.75;;;;;20.93;73.75;100284.16;4958847;28;50014;-62
2021/09/15 05:28:45;;;;;;;;;10.50;8.50;;;;;20.91;73.72;100287.06;4959665;28;63296;-61
2021/09/15 05:31:10;;;;;;;;;12.50;10.50;;;;;20.90;74.04;100291.56;4959508;28;61703;-61
2021/09/15 05:33:35;;;;;;;;;8.50;5.75;;;;;20.88;73.78;100290.94;4957958;28;68555;-61
2021/09/15 05:36:01;;;;;;;;;8.75;6.25;;;;;20.89;73.59;100289.13;4959449;28;60230;-60
2021/09/15 05:38:26;;;;;;;;;7.50;7.25;;;;;20.89;73.78;100291.78;4959853;28;46223;-61
2021/09/15 05:40:52;;;;;;;;;6.25;6.00;;;;;20.89;73.41;100297.13;4959385;28;65000;-61
2021/09/15 05:43:17;;;;;;;;;9.00;7.75;;;;;20.87;73.33;100291.97;4959816;28;51600;-61
2021/09/15 05:45:42;;;;;;;;;9.00;7.00;;;;;20.88;72.96;100293.63;4959083;28;69760;-61
2021/09/15 05:48:08;;;;;;;;;7.50;6.50;;;;;20.88;73.46;100298.16;4960116;28;45198;-61
2021/09/15 05:50:33;;;;;;;;;9.75;6.00;;;;;20.88;73.02;100300.81;4959885;28;45456;-61
2021/09/15 05:52:59;;;;;;;;;6.75;6.00;;;;;20.85;73.92;100307.41;4959820;28;46310;-61
2021/09/15 05:55:24;;;;;;;;;10.00;8.75;;;;;20.85;73.24;100298.56;4957811;28;64668;-61
2021/09/15 05:57:49;;;;;;;;;10.50;9.00;;;;;20.85;73.77;100314.59;4960059;28;45238;-61
2021/09/15 06:00:15;;;;;;;;;13.75;12.00;;;;;20.84;73.45;100303.06;4959624;28;46060;-61
2021/09/15 06:02:41;;;;;;;;;12.50;9.00;;;;;20.84;73.43;100321.78;4959651;28;46181;-61
2021/09/15 06:05:06;;;;;;;;;6.50;6.50;;;;;20.82;73.92;100323.81;4959669;28;45249;-62
2021/09/15 06:07:32;;;;;;;;;8.75;7.50;;;;;20.83;73.87;100305.97;4959671;28;45410;-61
2021/09/15 06:09:57;;;;;;;;;9.25;9.00;;;;;20.83;73.09;100317.47;4959176;28;58333;-62
2021/09/15 06:12:23;;;;;;;;;8.75;7.25;;;;;20.83;73.50;100319.31;4958652;28;75442;-60
2021/09/15 06:14:48;;;;;;;;;9.75;8.00;;;;;20.82;73.95;100321.16;4958804;28;66435;-61
2021/09/15 06:17:13;;;;;;;;;10.75;8.25;;;;;20.83;74.04;100327.34;4958484;28;68085;-61
2021/09/15 06:19:39;;;;;;;;;11.25;9.75;;;;;20.82;73.43;100326.50;4958527;28;68910;-61
2021/09/15 06:22:04;;;;;;;;;9.00;9.00;;;;;20.83;73.72;100333.47;4958065;28;52294;-61
2021/09/15 06:24:29;;;;;;;;;8.00;6.75;;;;;20.83;73.21;100333.47;4958259;28;45341;-61
2021/09/15 06:26:55;;;;;;;;;7.75;6.50;;;;;20.83;73.39;100336.16;4958676;28;55732;-61
2021/09/15 06:29:20;;;;;;;;;7.00;6.00;;;;;20.83;73.31;100333.47;4958565;28;45329;-61
2021/09/15 06:31:46;;;;;;;;;7.25;6.50;;;;;20.84;73.30;100335.13;4959187;28;45330;-61
2021/09/15 06:34:11;;;;;;;;;6.25;5.75;;;;;20.82;73.58;100326.50;4958791;28;64555;-61
2021/09/15 06:36:40;;;;;;;;;8.75;6.50;;;;;20.83;73.20;100328.13;4958590;28;67806;-61
2021/09/15 06:39:06;;;;;;;;;6.25;6.25;;;;;20.84;73.71;100337.00;4958451;28;56481;-61
2021/09/15 06:41:31;;;;;;;;;8.00;7.00;;;;;20.83;73.45;100333.47;4959171;28;46195;-61
2021/09/15 06:43:57;;;;;;;;;8.00;5.75;;;;;20.83;73.39;100330.81;4958511;28;62815;-61
2021/09/15 06:46:23;;;;;;;;;11.00;6.50;;;;;20.84;73.60;100332.44;4957000;28;69391;-61
2021/09/15 06:48:49;;;;;;;;;10.50;9.25;;;;;20.86;73.65;100338.41;4959290;28;45531;-61
2021/09/15 06:51:14;;;;;;;;;9.25;8.00;;;;;20.85;73.97;100336.75;4959136;28;46164;-61
2021/09/15 06:53:40;;;;;;;;;7.25;6.00;;;;;20.86;73.52;100341.06;4958201;28;64908;-61
2021/09/15 06:56:05;;;;;;;;;7.25;7.25;;;;;20.87;73.92;100342.72;4958065;28;58055;-61
2021/09/15 06:58:31;;;;;;;;;5.00;5.00;;;;;20.87;73.34;100333.91;4958023;28;67633;-61
2021/09/15 07:00:56;;;;;;;;;10.50;8.00;;;;;20.85;73.86;100339.44;4957458;28;47800;-61
2021/09/15 07:03:21;;;;;;;;;8.75;7.00;;;;;20.86;73.57;100341.06;4957822;28;71325;-61
2021/09/15 07:05:47;;;;;;;;;6.25;6.00;;;;;20.88;73.57;100339.03;4957095;28;64585;-61
2021/09/15 07:08:12;;;;;;;;;7.25;5.50;;;;;20.87;73.75;100345.38;4958840;28;45547;-61
2021/09/15 07:10:39;;;;;;;;;8.75;6.75;;;;;20.89;73.73;100345.19;4957924;28;73443;-61
2021/09/15 07:13:05;;;;;;;;;7.25;6.00;;;;;20.90;73.44;100350.31;4958755;28;45776;-61
2021/09/15 07:15:30;;;;;;;;;9.25;6.50;;;;;20.91;73.33;100351.16;4958125;28;45431;-61
2021/09/15 07:17:56;;;;;;;;;5.50;5.50;;;;;20.93;73.66;100343.72;4958873;28;45536;-61
2021/09/15 07:20:21;;;;;;;;;6.50;6.50;;;;;20.94;73.76;100355.25;4957943;28;66275;-61
2021/09/15 07:22:47;;;;;;;;;7.00;7.00;;;;;20.94;73.75;100349.91;4957831;28;63533;-61
2021/09/15 07:25:12;;;;;;;;;9.00;8.75;;;;;20.95;73.41;100356.88;4958509;28;48484;-61
2021/09/15 07:27:37;;;;;;;;;8.50;6.25;;;;;20.95;74.07;100357.69;4958564;28;45547;-61
2021/09/15 07:30:03;;;;;;;;;8.00;6.75;;;;;20.95;73.67;100362.22;4958379;28;46355;-61
2021/09/15 07:32:30;;;;;;;;;7.00;6.00;;;;;20.96;73.89;100363.88;4958569;28;45382;-61
2021/09/15 07:34:55;;;;;;;;;10.25;6.00;;;;;20.96;73.85;100371.88;4941209;28;45323;-61
2021/09/15 07:37:21;;;;;;;;;8.50;5.25;;;;;20.93;74.05;100364.28;4957873;28;45400;-61
2021/09/15 07:39:46;;;;;;;;;8.25;6.25;;;;;20.93;73.50;100369.63;4957744;28;47467;-61
2021/09/15 07:42:11;;;;;;;;;7.50;7.50;;;;;20.93;73.83;100365.09;4957935;28;45354;-61
2021/09/15 07:44:37;;;;;;;;;6.50;6.00;;;;;20.93;73.77;100364.28;4958481;28;45571;-61
2021/09/15 07:47:03;;;;;;;;;6.50;6.50;;;;;20.93;73.28;100369.63;4958161;28;45148;-62
2021/09/15 07:49:28;;;;;;;;;10.50;8.00;;;;;20.93;73.63;100359.75;4958015;28;46408;-61
2021/09/15 07:51:53;;;;;;;;;8.75;8.75;;;;;20.95;73.98;100368.38;4957830;28;46409;-61
2021/09/15 07:54:19;;;;;;;;;10.00;8.25;;;;;20.96;73.54;100371.88;4958123;28;45255;-60
2021/09/15 07:56:44;;;;;;;;;6.75;5.75;;;;;20.96;73.47;100375.34;4955994;28;65516;-61
2021/09/15 07:59:10;;;;;;;;;11.25;9.00;;;;;20.95;73.91;100370.22;4956789;28;70534;-61
2021/09/15 08:01:35;;;;;;;;;6.50;6.50;;;;;20.96;73.53;100374.53;4957831;28;45387;-61
2021/09/15 08:04:00;;;;;;;;;9.50;9.00;;;;;20.95;73.88;100373.72;4957095;28;64695;-61
2021/09/15 08:06:26;;;;;;;;;8.50;8.50;;;;;20.98;73.45;100378.63;4957875;28;45239;-61
2021/09/15 08:08:52;;;;;;;;;9.50;8.00;;;;;20.98;73.29;100377.81;4957472;28;46452;-61
2021/09/15 08:11:18;;;;;;;;;9.25;7.25;;;;;21.00;73.88;100378.44;4957495;28;45813;-61
2021/09/15 08:13:43;;;;;;;;;10.00;8.50;;;;;20.99;73.75;100379.47;4957665;28;45310;-61
2021/09/15 08:16:09;;;;;;;;;10.00;8.25;;;;;21.01;73.68;100382.75;4957654;28;45368;-60
2021/09/15 08:18:34;;;;;;;;;12.00;9.50;;;;;21.00;73.01;100381.13;4956490;28;64464;-61
2021/09/15 08:21:00;;;;;;;;;10.00;9.00;;;;;21.00;73.08;100387.25;4957472;28;45270;-62
2021/09/15 08:23:26;;;;;;;;;15.25;13.75;;;;;21.00;73.82;100381.13;4957575;28;45346;-61
2021/09/15 08:25:51;;;;;;;;;11.75;11.25;;;;;20.98;73.65;100386.66;4957708;28;45376;-61
2021/09/15 08:28:16;;;;;;;;;14.00;11.00;;;;;20.98;72.95;100385.84;4957203;28;46095;-61
2021/09/15 08:30:42;;;;;;;;;10.50;9.50;;;;;20.98;73.03;100388.50;4956851;28;45267;-61
2021/09/15 08:33:07;;;;;;;;;9.75;8.75;;;;;20.98;73.10;100388.50;4956805;28;45177;-61
2021/09/15 08:35:33;;;;;;;;;9.75;7.75;;;;;20.98;72.71;100389.31;4956931;28;45631;-61
2021/09/15 08:37:58;;;;;;;;;10.75;8.00;;;;;20.97;72.68;100392.22;4955998;28;63710;-61
2021/09/15 08:40:23;;;;;;;;;7.50;7.50;;;;;20.97;72.74;100397.56;4956667;28;46356;-60
2021/09/15 08:42:49;;;;;;;;;10.75;8.75;;;;;20.97;73.28;100397.56;4956637;28;62013;-62
2021/09/15 08:45:14;;;;;;;;;9.00;6.75;;;;;20.97;73.25;100392.22;4955808;28;45559;-61
2021/09/15 08:47:41;;;;;;;;;6.25;5.25;;;;;20.96;73.08;100399.38;4957034;28;46233;-61
2021/09/15 08:50:07;;;;;;;;;8.00;7.00;;;;;20.98;72.66;100404.53;4957400;28;45234;-61
2021/09/15 08:52:32;;;;;;;;;11.00;7.50;;;;;20.99;73.06;100400.84;4959005;28;45326;-61
2021/09/15 08:54:58;;;;;;;;;7.25;7.00;;;;;20.97;73.78;100402.91;4963749;28;45389;-61
2021/09/15 08:57:23;;;;;;;;;6.50;6.50;;;;;20.95;73.81;100403.09;4962761;28;70506;-62
2021/09/15 08:59:48;;;;;;;;;8.50;7.50;;;;;20.95;73.29;100402.28;4962413;28;72807;-61
2021/09/15 09:02:14;;;;;;;;;7.25;6.75;;;;;20.95;74.06;100402.28;4962619;28;62792;-61
2021/09/15 09:04:57;;;;;;;;;13.75;8.00;;;;;20.94;74.17;100408.66;4963609;28;45612;-61
2021/09/15 09:07:23;;;;;;;;;7.25;7.00;;;;;20.94;73.94;100406.78;4963222;28;45358;-61
2021/09/15 09:09:50;;;;;;;;;7.50;5.00;;;;;20.96;73.95;100411.94;4963303;28;45429;-61
2021/09/15 09:12:17;;;;;;;;;9.50;7.00;;;;;20.97;74.40;100406.38;4963609;28;45283;-61
2021/09/15 09:14:43;;;;;;;;;4.00;4.00;;;;;20.98;74.35;100409.88;4963649;28;45243;-60
2021/09/15 09:17:08;;;;;;;;;7.00;5.00;;;;;20.99;74.08;100414.19;4963338;28;45399;-61
2021/09/15 09:19:34;;;;;;;;;5.50;5.50;;;;;20.99;74.49;100406.97;4946278;28;45328;-61
2021/09/15 09:22:04;;;;;;;;;5.00;4.00;;;;;20.99;74.67;100420.34;4945543;28;62681;-61
2021/09/15 09:24:29;;;;;;;;;4.00;4.00;;;;;21.00;74.56;100408.63;4963564;28;45337;-61
2021/09/15 09:26:59;;;;;;;;;3.25;3.00;;;;;21.02;74.23;100408.44;4962447;28;72452;-61
2021/09/15 09:29:26;;;;;;;;;2.50;2.50;;;;;21.03;74.05;100405.53;4963438;28;45896;-61
2021/09/15 09:31:57;;;;;;;;;3.25;3.25;;;;;21.04;74.65;100409.03;4962473;28;45228;-61
2021/09/15 09:34:24;;;;;;;;;6.25;3.00;;;;;21.06;74.05;100412.34;4963499;28;45235;-61
2021/09/15 09:37:03;;;;;;;;;3.00;3.00;;;;;21.08;74.60;100406.75;4963178;28;46318;-60
2021/09/15 09:39:42;;;;;;;;;2.75;2.75;;;;;21.11;73.90;100414.38;4962924;28;45836;-61
2021/09/15 09:42:23;;;;;;;;;2.50;2.50;;;;;21.11;74.73;100411.69;4960993;28;45345;-61
2021/09/15 09:44:52;;;;;;;;;2.75;2.00;;;;;21.13;74.59;100415.81;4963230;28;45329;-61
2021/09/15 09:47:18;;;;;;;;;2.75;2.75;;;;;21.18;74.51;100412.50;4962995;28;45422;-61
2021/09/15 09:50:03;;;;;;;;;6.25;4.50;;;;;21.21;74.36;100420.09;4961985;28;45770;-61
2021/09/15 09:52:29;;;;;;;;;3.00;2.50;;;;;21.25;74.37;100415.97;4963287;28;45278;-61
2021/09/15 09:55:01;;;;;;;;;4.75;4.75;;;;;21.29;74.45;100417.22;4960987;28;70752;-61
2021/09/15 09:57:27;;;;;;;;;3.50;3.00;;;;;21.32;74.17;100414.13;4962917;28;45432;-61
2021/09/15 09:59:52;;;;;;;;;3.50;3.00;;;;;21.35;74.68;100416.38;4962844;28;45242;-61
2021/09/15 10:02:18;;;;;;;;;5.00;4.50;;;;;21.40;74.47;100417.59;4961148;28;60494;-61
2021/09/15 10:04:43;;;;;;;;;7.00;5.50;;;;;21.43;74.18;100423.31;4943247;28;58914;-61
2021/09/15 10:07:10;;;;;;;;;5.50;5.50;;;;;21.46;73.73;100428.25;4957521;28;70398;-61
2021/09/15 10:09:36;;;;;;;;;6.00;5.25;;;;;21.49;73.60;100421.66;4942804;28;45794;-61
2021/09/15 10:12:01;;;;;;;;;8.00;6.00;;;;;21.51;73.91;100414.25;4941665;28;62899;-61
2021/09/15 10:14:27;;;;;;;;;7.25;6.25;;;;;21.54;73.81;100413.00;4958090;28;53514;-60
2021/09/15 10:16:56;;;;;;;;;6.00;6.00;;;;;21.55;73.96;100418.13;4958149;28;46546;-60
2021/09/15 10:19:26;;;;;;;;;5.75;5.75;;;;;21.58;73.91;100416.91;4959387;28;45380;-60
2021/09/15 10:21:57;;;;;;;;;6.75;6.75;;;;;21.60;73.40;100422.84;4959576;28;45274;-60
2021/09/15 10:24:22;;;;;;;;;9.00;7.00;;;;;21.62;73.46;100415.47;4958410;28;45636;-60
2021/09/15 10:26:47;;;;;;;;;8.75;8.75;;;;;21.63;73.39;100412.56;4940997;28;72366;-60
2021/09/15 10:29:19;;;;;;;;;8.00;8.00;;;;;21.63;73.24;100411.78;4941124;28;69539;-60
2021/09/15 10:32:04;;;;;;;;;7.25;7.25;;;;;21.65;73.98;100409.72;4959550;28;45373;-60
2021/09/15 10:34:39;;;;;;;;;8.25;7.00;;;;;21.67;73.36;100407.63;4959136;28;45247;-60
2021/09/15 10:37:30;;;;;;;;;9.00;8.50;;;;;21.69;73.39;100413.59;4958601;28;45328;-60
2021/09/15 10:40:13;;;;;;;;;30.00;27.25;;;;;21.69;73.38;100410.91;4958804;28;45254;-60
2021/09/15 10:42:46;;;;;;;;;9.25;8.50;;;;;21.71;73.25;100408.84;4959400;28;45243;-60
2021/09/15 10:45:13;;;;;;;;;7.00;7.00;;;;;21.74;73.37;100404.94;4959045;28;45286;-62
2021/09/15 10:47:39;;;;;;;;;9.00;9.00;;;;;21.73;73.28;100419.31;4958988;28;45307;-60
2021/09/15 10:50:05;;;;;;;;;5.25;4.50;;;;;21.74;73.49;100412.94;4959163;28;47542;-60
2021/09/15 10:52:37;;;;;;;;;9.75;8.00;;;;;21.74;73.93;100419.09;4959307;28;45282;-59
2021/09/15 10:55:13;;;;;;;;;5.75;5.00;;;;;21.74;73.27;100413.75;4959657;28;45214;-60
2021/09/15 10:57:40;;;;;;;;;6.00;5.50;;;;;21.74;73.41;100419.09;4957624;28;47317;-60
2021/09/15 11:00:07;;;;;;;;;7.25;6.25;;;;;21.75;73.32;100414.59;4959259;28;45809;-60
2021/09/15 11:02:34;;;;;;;;;7.25;5.00;;;;;21.75;73.63;100414.59;4959504;28;45338;-60
2021/09/15 11:05:20;;;;;;;;;6.00;6.00;;;;;21.73;73.48;100422.81;4959442;28;45306;-60
2021/09/15 11:07:45;;;;;;;;;6.00;5.00;;;;;21.74;73.47;100420.97;4958785;28;46439;-60
2021/09/15 11:10:15;;;;;;;;;7.00;5.33;;;;;21.74;73.89;100427.13;4959107;28;45342;-60
2021/09/15 11:12:44;;;;;;;;;5.50;5.50;;;;;21.74;73.71;100424.44;4957263;28;45333;-60
2021/09/15 11:15:26;;;;;;;;;6.00;6.00;;;;;21.71;74.13;100424.91;4958067;28;45520;-62
2021/09/15 11:17:52;;;;;;;;;6.75;5.75;;;;;21.70;73.83;100433.97;4958505;28;46317;-61
2021/09/15 11:20:24;;;;;;;;;7.50;6.75;;;;;21.70;74.00;100433.97;4958572;28;45451;-62
2021/09/15 11:22:50;;;;;;;;;9.00;6.75;;;;;21.69;74.16;100436.81;4957523;28;45282;-61
2021/09/15 11:25:25;;;;;;;;;8.75;4.75;;;;;21.67;73.88;100439.72;4958766;28;45251;-62
2021/09/15 11:28:12;;;;;;;;;5.25;5.25;;;;;21.66;74.49;100437.25;4958600;28;46255;-61